sensor_id;sensor_type;location;lat;lon;timestamp;P1;durP1;ratioP1;P2;durP2;ratioP2
34573;SDS011;20809;49.594;8.734;2023-01-01T00:02:31;7.85;;;5.45;;
34573;SDS011;20809;49.594;8.734;2023-01-01T00:05:32;6.85;;;5.00;;
34573;SDS011;20809;49.594;8.734;2023-01-01T00:08:33;12.48;;;7.40;;
34573;SDS011;20809;49.594;8.734;2023-01-01T00:11:34;7.28;;;5.35;;
34573;SDS011;20809;49.594;8.734;2023-01-01T00:14:35;8.25;;;5.72;;
34573;SDS011;20809;49.594;8.734;2023-01-01T00:17:38;14.70;;;7.70;;
34573;SDS011;20809;49.594;8.734;2023-01-01T00:20:39;7.70;;;5.45;;
34573;SDS011;20809;49.594;8.734;2023-01-01T00:23:39;10.05;;;5.80;;
34573;SDS011;20809;49.594;8.734;2023-01-01T00:29:59;6.72;;;4.18;;
34573;SDS011;20809;49.594;8.734;2023-01-01T00:33:00;10.35;;;6.50;;
34573;SDS011;20809;49.594;8.734;2023-01-01T00:36:10;7.20;;;5.35;;
34573;SDS011;20809;49.594;8.734;2023-01-01T00:39:12;7.50;;;5.28;;
34573;SDS011;20809;49.594;8.734;2023-01-01T00:42:13;6.57;;;4.53;;
34573;SDS011;20809;49.594;8.734;2023-01-01T00:45:14;9.63;;;5.60;;
34573;SDS011;20809;49.594;8.734;2023-01-01T00:48:15;6.03;;;4.15;;
34573;SDS011;20809;49.594;8.734;2023-01-01T00:51:15;5.10;;;3.95;;
34573;SDS011;20809;49.594;8.734;2023-01-01T00:54:16;6.05;;;4.03;;
34573;SDS011;20809;49.594;8.734;2023-01-01T00:57:17;6.28;;;3.72;;
34573;SDS011;20809;49.594;8.734;2023-01-01T01:00:17;5.67;;;3.47;;
34573;SDS011;20809;49.594;8.734;2023-01-01T01:03:19;4.75;;;3.88;;
34573;SDS011;20809;49.594;8.734;2023-01-01T01:06:29;5.45;;;4.30;;
34573;SDS011;20809;49.594;8.734;2023-01-01T01:09:30;7.28;;;4.20;;
34573;SDS011;20809;49.594;8.734;2023-01-01T01:12:32;5.90;;;3.58;;
34573;SDS011;20809;49.594;8.734;2023-01-01T01:15:34;6.22;;;3.65;;
34573;SDS011;20809;49.594;8.734;2023-01-01T01:18:34;5.20;;;3.47;;
34573;SDS011;20809;49.594;8.734;2023-01-01T01:21:35;6.53;;;4.55;;
34573;SDS011;20809;49.594;8.734;2023-01-01T01:24:37;5.90;;;4.05;;
34573;SDS011;20809;49.594;8.734;2023-01-01T01:27:37;6.07;;;3.47;;
34573;SDS011;20809;49.594;8.734;2023-01-01T01:30:38;7.10;;;3.90;;
34573;SDS011;20809;49.594;8.734;2023-01-01T01:33:39;5.70;;;4.00;;
34573;SDS011;20809;49.594;8.734;2023-01-01T01:36:42;7.20;;;3.97;;
34573;SDS011;20809;49.594;8.734;2023-01-01T01:39:43;7.70;;;3.92;;
34573;SDS011;20809;49.594;8.734;2023-01-01T01:42:44;8.63;;;5.28;;
34573;SDS011;20809;49.594;8.734;2023-01-01T01:45:46;5.40;;;3.60;;
34573;SDS011;20809;49.594;8.734;2023-01-01T01:48:48;8.20;;;4.55;;
34573;SDS011;20809;49.594;8.734;2023-01-01T01:51:51;5.95;;;3.38;;
34573;SDS011;20809;49.594;8.734;2023-01-01T01:54:55;6.05;;;3.88;;
34573;SDS011;20809;49.594;8.734;2023-01-01T01:59:11;4.70;;;3.38;;
34573;SDS011;20809;49.594;8.734;2023-01-01T02:02:17;5.72;;;2.80;;
34573;SDS011;20809;49.594;8.734;2023-01-01T02:05:26;7.28;;;4.38;;
34573;SDS011;20809;49.594;8.734;2023-01-01T02:08:29;5.55;;;4.28;;
34573;SDS011;20809;49.594;8.734;2023-01-01T02:11:29;5.55;;;4.13;;
34573;SDS011;20809;49.594;8.734;2023-01-01T02:14:30;8.40;;;4.65;;
34573;SDS011;20809;49.594;8.734;2023-01-01T02:17:33;6.43;;;4.57;;
34573;SDS011;20809;49.594;8.734;2023-01-01T02:23:57;6.28;;;4.88;;
34573;SDS011;20809;49.594;8.734;2023-01-01T02:27:20;7.28;;;4.82;;
34573;SDS011;20809;49.594;8.734;2023-01-01T02:30:28;7.07;;;3.58;;
34573;SDS011;20809;49.594;8.734;2023-01-01T02:33:30;5.07;;;3.95;;
34573;SDS011;20809;49.594;8.734;2023-01-01T02:36:34;5.65;;;4.00;;
34573;SDS011;20809;49.594;8.734;2023-01-01T02:39:41;4.35;;;3.88;;
34573;SDS011;20809;49.594;8.734;2023-01-01T02:42:48;7.13;;;3.97;;
34573;SDS011;20809;49.594;8.734;2023-01-01T02:45:51;5.10;;;4.07;;
34573;SDS011;20809;49.594;8.734;2023-01-01T02:48:53;4.25;;;3.45;;
34573;SDS011;20809;49.594;8.734;2023-01-01T02:52:00;6.20;;;3.85;;
34573;SDS011;20809;49.594;8.734;2023-01-01T02:55:07;7.65;;;3.20;;
34573;SDS011;20809;49.594;8.734;2023-01-01T02:58:32;4.53;;;3.30;;
34573;SDS011;20809;49.594;8.734;2023-01-01T03:05:32;3.63;;;3.17;;
34573;SDS011;20809;49.594;8.734;2023-01-01T03:15:30;4.82;;;3.55;;
34573;SDS011;20809;49.594;8.734;2023-01-01T03:18:58;6.72;;;3.50;;
34573;SDS011;20809;49.594;8.734;2023-01-01T03:22:16;6.70;;;3.67;;
34573;SDS011;20809;49.594;8.734;2023-01-01T03:25:21;6.88;;;3.75;;
34573;SDS011;20809;49.594;8.734;2023-01-01T03:28:25;5.13;;;3.58;;
34573;SDS011;20809;49.594;8.734;2023-01-01T03:31:39;5.47;;;3.60;;
34573;SDS011;20809;49.594;8.734;2023-01-01T03:34:46;9.15;;;3.75;;
34573;SDS011;20809;49.594;8.734;2023-01-01T03:37:53;5.35;;;3.67;;
34573;SDS011;20809;49.594;8.734;2023-01-01T03:40:59;7.63;;;3.85;;
34573;SDS011;20809;49.594;8.734;2023-01-01T03:47:09;6.80;;;3.50;;
34573;SDS011;20809;49.594;8.734;2023-01-01T03:50:10;5.47;;;2.95;;
34573;SDS011;20809;49.594;8.734;2023-01-01T03:53:17;4.68;;;2.97;;
34573;SDS011;20809;49.594;8.734;2023-01-01T03:56:29;5.13;;;3.22;;
34573;SDS011;20809;49.594;8.734;2023-01-01T04:03:01;5.72;;;3.03;;
34573;SDS011;20809;49.594;8.734;2023-01-01T04:06:08;5.82;;;2.75;;
34573;SDS011;20809;49.594;8.734;2023-01-01T04:09:14;4.90;;;2.70;;
34573;SDS011;20809;49.594;8.734;2023-01-01T04:12:18;4.63;;;2.95;;
34573;SDS011;20809;49.594;8.734;2023-01-01T04:15:21;8.65;;;2.65;;
34573;SDS011;20809;49.594;8.734;2023-01-01T04:18:24;5.15;;;2.35;;
34573;SDS011;20809;49.594;8.734;2023-01-01T04:21:25;2.90;;;2.00;;
34573;SDS011;20809;49.594;8.734;2023-01-01T04:24:26;4.07;;;2.50;;
34573;SDS011;20809;49.594;8.734;2023-01-01T04:27:27;6.53;;;2.78;;
34573;SDS011;20809;49.594;8.734;2023-01-01T04:30:28;4.45;;;2.05;;
34573;SDS011;20809;49.594;8.734;2023-01-01T04:33:29;4.13;;;2.40;;
34573;SDS011;20809;49.594;8.734;2023-01-01T04:36:32;5.05;;;2.45;;
34573;SDS011;20809;49.594;8.734;2023-01-01T04:39:33;4.28;;;2.22;;
34573;SDS011;20809;49.594;8.734;2023-01-01T04:42:34;6.20;;;2.97;;
34573;SDS011;20809;49.594;8.734;2023-01-01T04:45:35;4.07;;;2.17;;
34573;SDS011;20809;49.594;8.734;2023-01-01T04:48:35;6.30;;;2.55;;
34573;SDS011;20809;49.594;8.734;2023-01-01T04:51:36;4.80;;;2.35;;
34573;SDS011;20809;49.594;8.734;2023-01-01T04:54:37;6.28;;;2.95;;
34573;SDS011;20809;49.594;8.734;2023-01-01T04:57:38;3.95;;;2.38;;
34573;SDS011;20809;49.594;8.734;2023-01-01T05:00:38;7.45;;;2.58;;
34573;SDS011;20809;49.594;8.734;2023-01-01T05:03:39;6.07;;;2.00;;
34573;SDS011;20809;49.594;8.734;2023-01-01T05:06:40;4.15;;;1.75;;
34573;SDS011;20809;49.594;8.734;2023-01-01T05:09:41;4.03;;;2.03;;
34573;SDS011;20809;49.594;8.734;2023-01-01T05:12:41;4.05;;;2.70;;
34573;SDS011;20809;49.594;8.734;2023-01-01T05:15:42;4.15;;;2.67;;
34573;SDS011;20809;49.594;8.734;2023-01-01T05:18:43;3.13;;;1.98;;
34573;SDS011;20809;49.594;8.734;2023-01-01T05:21:44;4.00;;;2.20;;
34573;SDS011;20809;49.594;8.734;2023-01-01T05:24:45;3.33;;;1.60;;
34573;SDS011;20809;49.594;8.734;2023-01-01T05:27:46;3.90;;;1.88;;
34573;SDS011;20809;49.594;8.734;2023-01-01T05:30:47;5.60;;;1.92;;
34573;SDS011;20809;49.594;8.734;2023-01-01T05:33:48;5.47;;;2.55;;
34573;SDS011;20809;49.594;8.734;2023-01-01T05:36:51;5.45;;;2.35;;
34573;SDS011;20809;49.594;8.734;2023-01-01T05:39:51;3.47;;;2.10;;
34573;SDS011;20809;49.594;8.734;2023-01-01T05:42:52;3.72;;;2.10;;
34573;SDS011;20809;49.594;8.734;2023-01-01T05:46:03;3.88;;;2.20;;
34573;SDS011;20809;49.594;8.734;2023-01-01T05:49:10;3.17;;;1.90;;
34573;SDS011;20809;49.594;8.734;2023-01-01T05:52:11;3.53;;;2.00;;
34573;SDS011;20809;49.594;8.734;2023-01-01T05:55:11;6.45;;;2.50;;
34573;SDS011;20809;49.594;8.734;2023-01-01T05:58:12;4.55;;;2.25;;
34573;SDS011;20809;49.594;8.734;2023-01-01T06:04:16;4.95;;;2.13;;
34573;SDS011;20809;49.594;8.734;2023-01-01T06:07:17;5.70;;;2.38;;
34573;SDS011;20809;49.594;8.734;2023-01-01T06:10:17;5.57;;;2.35;;
34573;SDS011;20809;49.594;8.734;2023-01-01T06:13:18;3.03;;;1.90;;
34573;SDS011;20809;49.594;8.734;2023-01-01T06:16:19;5.28;;;2.03;;
34573;SDS011;20809;49.594;8.734;2023-01-01T06:19:20;3.22;;;2.08;;
34573;SDS011;20809;49.594;8.734;2023-01-01T06:22:20;2.75;;;2.25;;
34573;SDS011;20809;49.594;8.734;2023-01-01T06:25:21;3.22;;;2.08;;
34573;SDS011;20809;49.594;8.734;2023-01-01T06:28:22;4.78;;;2.70;;
34573;SDS011;20809;49.594;8.734;2023-01-01T06:31:24;4.35;;;2.10;;
34573;SDS011;20809;49.594;8.734;2023-01-01T06:34:25;3.30;;;2.30;;
34573;SDS011;20809;49.594;8.734;2023-01-01T06:37:26;6.78;;;1.90;;
34573;SDS011;20809;49.594;8.734;2023-01-01T06:43:28;3.33;;;2.23;;
34573;SDS011;20809;49.594;8.734;2023-01-01T06:46:31;3.75;;;2.67;;
34573;SDS011;20809;49.594;8.734;2023-01-01T06:49:33;5.55;;;2.33;;
34573;SDS011;20809;49.594;8.734;2023-01-01T06:52:34;7.80;;;1.80;;
34573;SDS011;20809;49.594;8.734;2023-01-01T06:55:34;4.05;;;2.17;;
34573;SDS011;20809;49.594;8.734;2023-01-01T06:58:37;4.50;;;2.28;;
34573;SDS011;20809;49.594;8.734;2023-01-01T07:01:38;3.70;;;1.83;;
34573;SDS011;20809;49.594;8.734;2023-01-01T07:04:39;7.55;;;3.90;;
34573;SDS011;20809;49.594;8.734;2023-01-01T07:07:40;6.35;;;2.13;;
34573;SDS011;20809;49.594;8.734;2023-01-01T07:10:40;3.22;;;1.80;;
34573;SDS011;20809;49.594;8.734;2023-01-01T07:13:41;6.05;;;2.50;;
34573;SDS011;20809;49.594;8.734;2023-01-01T07:16:42;4.63;;;2.08;;
34573;SDS011;20809;49.594;8.734;2023-01-01T07:19:42;4.40;;;1.70;;
34573;SDS011;20809;49.594;8.734;2023-01-01T07:22:43;3.40;;;2.08;;
34573;SDS011;20809;49.594;8.734;2023-01-01T07:25:44;3.65;;;1.83;;
34573;SDS011;20809;49.594;8.734;2023-01-01T07:28:47;4.50;;;1.90;;
34573;SDS011;20809;49.594;8.734;2023-01-01T07:31:48;6.32;;;2.08;;
34573;SDS011;20809;49.594;8.734;2023-01-01T07:34:49;3.88;;;2.05;;
34573;SDS011;20809;49.594;8.734;2023-01-01T07:37:49;6.32;;;2.22;;
34573;SDS011;20809;49.594;8.734;2023-01-01T07:40:50;3.42;;;2.03;;
34573;SDS011;20809;49.594;8.734;2023-01-01T07:43:51;4.03;;;2.20;;
34573;SDS011;20809;49.594;8.734;2023-01-01T07:47:00;5.95;;;2.35;;
34573;SDS011;20809;49.594;8.734;2023-01-01T07:50:05;4.88;;;2.42;;
34573;SDS011;20809;49.594;8.734;2023-01-01T07:53:06;8.57;;;2.30;;
34573;SDS011;20809;49.594;8.734;2023-01-01T07:56:06;5.63;;;2.00;;
34573;SDS011;20809;49.594;8.734;2023-01-01T07:59:07;3.75;;;1.50;;
34573;SDS011;20809;49.594;8.734;2023-01-01T08:02:10;5.00;;;1.90;;
34573;SDS011;20809;49.594;8.734;2023-01-01T08:05:14;7.82;;;2.30;;
34573;SDS011;20809;49.594;8.734;2023-01-01T08:08:15;4.97;;;1.98;;
34573;SDS011;20809;49.594;8.734;2023-01-01T08:11:16;2.42;;;1.08;;
34573;SDS011;20809;49.594;8.734;2023-01-01T08:14:17;6.65;;;1.90;;
34573;SDS011;20809;49.594;8.734;2023-01-01T08:17:17;5.32;;;1.65;;
34573;SDS011;20809;49.594;8.734;2023-01-01T08:20:18;5.60;;;1.50;;
34573;SDS011;20809;49.594;8.734;2023-01-01T08:23:19;4.38;;;1.40;;
34573;SDS011;20809;49.594;8.734;2023-01-01T08:26:27;7.80;;;1.92;;
34573;SDS011;20809;49.594;8.734;2023-01-01T08:29:29;4.00;;;1.65;;
34573;SDS011;20809;49.594;8.734;2023-01-01T08:32:30;3.35;;;1.58;;
34573;SDS011;20809;49.594;8.734;2023-01-01T08:35:39;9.02;;;3.08;;
34573;SDS011;20809;49.594;8.734;2023-01-01T08:38:41;7.75;;;2.50;;
34573;SDS011;20809;49.594;8.734;2023-01-01T08:41:42;5.28;;;1.88;;
34573;SDS011;20809;49.594;8.734;2023-01-01T08:44:43;3.72;;;1.70;;
34573;SDS011;20809;49.594;8.734;2023-01-01T08:47:44;2.80;;;1.48;;
34573;SDS011;20809;49.594;8.734;2023-01-01T08:50:51;4.32;;;2.25;;
34573;SDS011;20809;49.594;8.734;2023-01-01T08:53:55;9.32;;;2.53;;
34573;SDS011;20809;49.594;8.734;2023-01-01T08:56:56;8.43;;;1.92;;
34573;SDS011;20809;49.594;8.734;2023-01-01T08:59:56;3.45;;;1.80;;
34573;SDS011;20809;49.594;8.734;2023-01-01T09:02:57;6.72;;;1.80;;
34573;SDS011;20809;49.594;8.734;2023-01-01T09:05:58;4.53;;;1.77;;
34573;SDS011;20809;49.594;8.734;2023-01-01T09:08:59;2.20;;;1.50;;
34573;SDS011;20809;49.594;8.734;2023-01-01T09:11:59;2.08;;;1.25;;
34573;SDS011;20809;49.594;8.734;2023-01-01T09:15:05;4.15;;;1.63;;
34573;SDS011;20809;49.594;8.734;2023-01-01T09:18:06;5.20;;;1.63;;
34573;SDS011;20809;49.594;8.734;2023-01-01T09:21:07;5.85;;;2.58;;
34573;SDS011;20809;49.594;8.734;2023-01-01T09:24:08;6.75;;;1.77;;
34573;SDS011;20809;49.594;8.734;2023-01-01T09:27:08;5.72;;;2.28;;
34573;SDS011;20809;49.594;8.734;2023-01-01T09:30:09;4.18;;;1.45;;
34573;SDS011;20809;49.594;8.734;2023-01-01T09:33:10;5.90;;;1.58;;
34573;SDS011;20809;49.594;8.734;2023-01-01T09:36:12;4.72;;;2.05;;
34573;SDS011;20809;49.594;8.734;2023-01-01T09:39:14;3.38;;;1.88;;
34573;SDS011;20809;49.594;8.734;2023-01-01T09:42:18;4.45;;;1.90;;
34573;SDS011;20809;49.594;8.734;2023-01-01T09:45:49;4.90;;;1.67;;
34573;SDS011;20809;49.594;8.734;2023-01-01T09:49:02;7.95;;;2.45;;
34573;SDS011;20809;49.594;8.734;2023-01-01T09:52:11;3.88;;;2.10;;
34573;SDS011;20809;49.594;8.734;2023-01-01T09:55:15;6.22;;;2.15;;
34573;SDS011;20809;49.594;8.734;2023-01-01T09:58:25;8.02;;;2.08;;
34573;SDS011;20809;49.594;8.734;2023-01-01T10:07:42;4.85;;;1.50;;
34573;SDS011;20809;49.594;8.734;2023-01-01T10:14:13;7.55;;;1.63;;
34573;SDS011;20809;49.594;8.734;2023-01-01T10:17:36;5.03;;;1.90;;
34573;SDS011;20809;49.594;8.734;2023-01-01T10:20:43;7.65;;;2.17;;
34573;SDS011;20809;49.594;8.734;2023-01-01T10:23:51;5.32;;;1.70;;
34573;SDS011;20809;49.594;8.734;2023-01-01T10:26:58;5.35;;;2.08;;
34573;SDS011;20809;49.594;8.734;2023-01-01T10:33:09;3.80;;;1.70;;
34573;SDS011;20809;49.594;8.734;2023-01-01T10:36:13;5.88;;;1.80;;
34573;SDS011;20809;49.594;8.734;2023-01-01T10:39:17;4.35;;;1.30;;
34573;SDS011;20809;49.594;8.734;2023-01-01T10:42:18;5.53;;;1.58;;
34573;SDS011;20809;49.594;8.734;2023-01-01T10:45:42;5.68;;;1.45;;
34573;SDS011;20809;49.594;8.734;2023-01-01T10:49:19;8.15;;;1.85;;
34573;SDS011;20809;49.594;8.734;2023-01-01T10:52:15;5.00;;;2.85;;
34573;SDS011;20809;49.594;8.734;2023-01-01T10:55:19;3.25;;;2.47;;
34573;SDS011;20809;49.594;8.734;2023-01-01T10:58:26;5.25;;;1.50;;
34573;SDS011;20809;49.594;8.734;2023-01-01T11:01:32;4.45;;;1.58;;
34573;SDS011;20809;49.594;8.734;2023-01-01T11:04:33;3.47;;;1.60;;
34573;SDS011;20809;49.594;8.734;2023-01-01T11:07:34;6.07;;;1.60;;
34573;SDS011;20809;49.594;8.734;2023-01-01T11:10:35;3.80;;;1.40;;
34573;SDS011;20809;49.594;8.734;2023-01-01T11:13:36;5.40;;;1.77;;
34573;SDS011;20809;49.594;8.734;2023-01-01T11:16:39;4.95;;;1.73;;
34573;SDS011;20809;49.594;8.734;2023-01-01T11:19:40;4.35;;;1.83;;
34573;SDS011;20809;49.594;8.734;2023-01-01T11:22:42;4.03;;;2.25;;
34573;SDS011;20809;49.594;8.734;2023-01-01T11:25:55;7.47;;;2.50;;
34573;SDS011;20809;49.594;8.734;2023-01-01T11:32:00;3.92;;;2.10;;
34573;SDS011;20809;49.594;8.734;2023-01-01T11:35:05;4.50;;;1.80;;
34573;SDS011;20809;49.594;8.734;2023-01-01T11:38:21;6.50;;;1.83;;
34573;SDS011;20809;49.594;8.734;2023-01-01T11:41:23;6.43;;;2.38;;
34573;SDS011;20809;49.594;8.734;2023-01-01T11:50:38;6.60;;;2.05;;
34573;SDS011;20809;49.594;8.734;2023-01-01T11:53:40;7.50;;;1.63;;
34573;SDS011;20809;49.594;8.734;2023-01-01T11:56:41;3.15;;;1.60;;
34573;SDS011;20809;49.594;8.734;2023-01-01T11:59:46;6.85;;;1.58;;
34573;SDS011;20809;49.594;8.734;2023-01-01T12:03:14;4.70;;;2.03;;
34573;SDS011;20809;49.594;8.734;2023-01-01T12:06:28;5.38;;;2.10;;
34573;SDS011;20809;49.594;8.734;2023-01-01T12:09:49;4.80;;;1.90;;
34573;SDS011;20809;49.594;8.734;2023-01-01T12:12:57;3.13;;;2.10;;
34573;SDS011;20809;49.594;8.734;2023-01-01T12:16:32;6.93;;;1.83;;
34573;SDS011;20809;49.594;8.734;2023-01-01T12:19:47;4.70;;;1.70;;
34573;SDS011;20809;49.594;8.734;2023-01-01T12:23:15;4.50;;;1.73;;
34573;SDS011;20809;49.594;8.734;2023-01-01T12:42:59;2.80;;;1.60;;
34573;SDS011;20809;49.594;8.734;2023-01-01T12:49:18;9.20;;;3.30;;
34573;SDS011;20809;49.594;8.734;2023-01-01T12:59:15;4.80;;;1.73;;
34573;SDS011;20809;49.594;8.734;2023-01-01T13:02:27;4.40;;;1.85;;
34573;SDS011;20809;49.594;8.734;2023-01-01T13:05:49;4.45;;;2.05;;
34573;SDS011;20809;49.594;8.734;2023-01-01T13:08:54;4.35;;;1.73;;
34573;SDS011;20809;49.594;8.734;2023-01-01T13:12:10;7.72;;;2.13;;
34573;SDS011;20809;49.594;8.734;2023-01-01T13:18:34;5.55;;;1.73;;
34573;SDS011;20809;49.594;8.734;2023-01-01T13:21:35;5.63;;;1.40;;
34573;SDS011;20809;49.594;8.734;2023-01-01T13:24:36;10.60;;;2.42;;
34573;SDS011;20809;49.594;8.734;2023-01-01T13:30:56;5.32;;;2.05;;
34573;SDS011;20809;49.594;8.734;2023-01-01T13:37:41;6.10;;;1.80;;
34573;SDS011;20809;49.594;8.734;2023-01-01T13:40:49;7.78;;;2.08;;
34573;SDS011;20809;49.594;8.734;2023-01-01T13:43:50;6.78;;;1.73;;
34573;SDS011;20809;49.594;8.734;2023-01-01T13:53:16;5.68;;;1.80;;
34573;SDS011;20809;49.594;8.734;2023-01-01T13:59:54;7.25;;;2.00;;
34573;SDS011;20809;49.594;8.734;2023-01-01T14:03:15;3.47;;;2.22;;
34573;SDS011;20809;49.594;8.734;2023-01-01T14:06:27;5.72;;;2.33;;
34573;SDS011;20809;49.594;8.734;2023-01-01T14:09:29;7.57;;;2.40;;
34573;SDS011;20809;49.594;8.734;2023-01-01T14:12:30;7.15;;;2.97;;
34573;SDS011;20809;49.594;8.734;2023-01-01T14:15:31;4.38;;;2.85;;
34573;SDS011;20809;49.594;8.734;2023-01-01T14:18:38;9.25;;;2.78;;
34573;SDS011;20809;49.594;8.734;2023-01-01T14:21:41;7.50;;;3.15;;
34573;SDS011;20809;49.594;8.734;2023-01-01T14:24:44;9.95;;;4.30;;
34573;SDS011;20809;49.594;8.734;2023-01-01T14:27:46;5.07;;;3.03;;
34573;SDS011;20809;49.594;8.734;2023-01-01T14:30:46;5.38;;;3.28;;
34573;SDS011;20809;49.594;8.734;2023-01-01T14:33:47;4.63;;;3.20;;
34573;SDS011;20809;49.594;8.734;2023-01-01T14:36:52;5.38;;;2.70;;
34573;SDS011;20809;49.594;8.734;2023-01-01T14:40:04;9.27;;;3.88;;
34573;SDS011;20809;49.594;8.734;2023-01-01T14:43:06;6.90;;;3.60;;
34573;SDS011;20809;49.594;8.734;2023-01-01T14:46:18;9.45;;;3.08;;
34573;SDS011;20809;49.594;8.734;2023-01-01T14:49:22;2.95;;;2.03;;
34573;SDS011;20809;49.594;8.734;2023-01-01T14:52:27;4.85;;;2.33;;
34573;SDS011;20809;49.594;8.734;2023-01-01T14:55:34;6.07;;;2.47;;
34573;SDS011;20809;49.594;8.734;2023-01-01T14:58:42;6.88;;;3.20;;
34573;SDS011;20809;49.594;8.734;2023-01-01T15:01:43;6.70;;;3.05;;
34573;SDS011;20809;49.594;8.734;2023-01-01T15:04:44;8.77;;;5.65;;
34573;SDS011;20809;49.594;8.734;2023-01-01T15:07:53;8.45;;;5.20;;
34573;SDS011;20809;49.594;8.734;2023-01-01T15:10:57;16.48;;;6.95;;
34573;SDS011;20809;49.594;8.734;2023-01-01T15:14:02;6.22;;;2.35;;
34573;SDS011;20809;49.594;8.734;2023-01-01T15:17:04;6.25;;;2.40;;
34573;SDS011;20809;49.594;8.734;2023-01-01T15:20:18;5.00;;;2.10;;
34573;SDS011;20809;49.594;8.734;2023-01-01T15:23:20;8.68;;;2.00;;
34573;SDS011;20809;49.594;8.734;2023-01-01T15:26:32;4.70;;;1.83;;
34573;SDS011;20809;49.594;8.734;2023-01-01T15:29:37;4.55;;;1.85;;
34573;SDS011;20809;49.594;8.734;2023-01-01T15:32:39;4.70;;;2.03;;
34573;SDS011;20809;49.594;8.734;2023-01-01T15:35:40;7.25;;;2.83;;
34573;SDS011;20809;49.594;8.734;2023-01-01T15:38:46;3.75;;;1.80;;
34573;SDS011;20809;49.594;8.734;2023-01-01T15:41:48;4.25;;;1.70;;
34573;SDS011;20809;49.594;8.734;2023-01-01T15:44:50;4.25;;;1.48;;
34573;SDS011;20809;49.594;8.734;2023-01-01T15:47:51;3.83;;;1.42;;
34573;SDS011;20809;49.594;8.734;2023-01-01T15:50:57;4.38;;;2.35;;
34573;SDS011;20809;49.594;8.734;2023-01-01T15:54:12;6.72;;;2.65;;
34573;SDS011;20809;49.594;8.734;2023-01-01T15:57:18;9.65;;;5.40;;
34573;SDS011;20809;49.594;8.734;2023-01-01T16:00:22;14.95;;;8.65;;
34573;SDS011;20809;49.594;8.734;2023-01-01T16:03:26;13.82;;;6.65;;
34573;SDS011;20809;49.594;8.734;2023-01-01T16:06:28;11.52;;;6.15;;
34573;SDS011;20809;49.594;8.734;2023-01-01T16:09:29;10.98;;;5.25;;
34573;SDS011;20809;49.594;8.734;2023-01-01T16:12:32;12.57;;;5.30;;
34573;SDS011;20809;49.594;8.734;2023-01-01T16:15:32;13.65;;;5.95;;
34573;SDS011;20809;49.594;8.734;2023-01-01T16:18:35;9.20;;;4.82;;
34573;SDS011;20809;49.594;8.734;2023-01-01T16:21:37;14.45;;;6.75;;
34573;SDS011;20809;49.594;8.734;2023-01-01T16:24:38;9.45;;;6.00;;
34573;SDS011;20809;49.594;8.734;2023-01-01T16:27:39;10.73;;;6.20;;
34573;SDS011;20809;49.594;8.734;2023-01-01T16:30:41;14.13;;;6.53;;
34573;SDS011;20809;49.594;8.734;2023-01-01T16:33:43;15.32;;;5.90;;
34573;SDS011;20809;49.594;8.734;2023-01-01T16:36:52;11.50;;;5.20;;
34573;SDS011;20809;49.594;8.734;2023-01-01T16:39:52;14.17;;;5.97;;
34573;SDS011;20809;49.594;8.734;2023-01-01T16:42:53;7.07;;;4.57;;
34573;SDS011;20809;49.594;8.734;2023-01-01T16:45:54;9.63;;;5.03;;
34573;SDS011;20809;49.594;8.734;2023-01-01T16:48:54;8.70;;;5.00;;
34573;SDS011;20809;49.594;8.734;2023-01-01T16:51:55;10.27;;;5.18;;
34573;SDS011;20809;49.594;8.734;2023-01-01T16:54:56;14.50;;;5.53;;
34573;SDS011;20809;49.594;8.734;2023-01-01T16:57:57;18.10;;;8.15;;
34573;SDS011;20809;49.594;8.734;2023-01-01T17:00:58;13.57;;;8.10;;
34573;SDS011;20809;49.594;8.734;2023-01-01T17:03:59;17.38;;;8.18;;
34573;SDS011;20809;49.594;8.734;2023-01-01T17:07:00;12.60;;;5.72;;
34573;SDS011;20809;49.594;8.734;2023-01-01T17:10:01;12.27;;;7.28;;
34573;SDS011;20809;49.594;8.734;2023-01-01T17:13:03;14.52;;;8.57;;
34573;SDS011;20809;49.594;8.734;2023-01-01T17:16:04;18.48;;;9.05;;
34573;SDS011;20809;49.594;8.734;2023-01-01T17:19:05;18.23;;;8.90;;
34573;SDS011;20809;49.594;8.734;2023-01-01T17:22:05;19.20;;;9.23;;
34573;SDS011;20809;49.594;8.734;2023-01-01T17:25:06;19.67;;;9.55;;
34573;SDS011;20809;49.594;8.734;2023-01-01T17:28:07;22.00;;;11.95;;
34573;SDS011;20809;49.594;8.734;2023-01-01T17:31:09;22.02;;;11.20;;
34573;SDS011;20809;49.594;8.734;2023-01-01T17:34:12;28.73;;;16.80;;
34573;SDS011;20809;49.594;8.734;2023-01-01T17:37:13;31.88;;;18.98;;
34573;SDS011;20809;49.594;8.734;2023-01-01T17:40:13;31.63;;;18.23;;
34573;SDS011;20809;49.594;8.734;2023-01-01T17:43:14;29.23;;;16.67;;
34573;SDS011;20809;49.594;8.734;2023-01-01T17:46:19;37.83;;;17.77;;
34573;SDS011;20809;49.594;8.734;2023-01-01T17:49:21;27.50;;;14.18;;
34573;SDS011;20809;49.594;8.734;2023-01-01T17:52:22;22.88;;;12.90;;
34573;SDS011;20809;49.594;8.734;2023-01-01T17:55:23;21.52;;;11.18;;
34573;SDS011;20809;49.594;8.734;2023-01-01T17:58:24;23.50;;;11.75;;
34573;SDS011;20809;49.594;8.734;2023-01-01T18:01:29;17.58;;;9.43;;
34573;SDS011;20809;49.594;8.734;2023-01-01T18:04:31;24.55;;;10.65;;
34573;SDS011;20809;49.594;8.734;2023-01-01T18:07:32;17.00;;;10.68;;
34573;SDS011;20809;49.594;8.734;2023-01-01T18:10:33;16.60;;;9.52;;
34573;SDS011;20809;49.594;8.734;2023-01-01T18:13:34;12.73;;;7.45;;
34573;SDS011;20809;49.594;8.734;2023-01-01T18:19:36;10.38;;;4.82;;
34573;SDS011;20809;49.594;8.734;2023-01-01T18:22:38;15.25;;;6.00;;
34573;SDS011;20809;49.594;8.734;2023-01-01T18:25:38;24.35;;;13.45;;
34573;SDS011;20809;49.594;8.734;2023-01-01T18:28:39;33.38;;;17.55;;
34573;SDS011;20809;49.594;8.734;2023-01-01T18:31:40;34.47;;;18.65;;
34573;SDS011;20809;49.594;8.734;2023-01-01T18:34:41;28.17;;;14.27;;
34573;SDS011;20809;49.594;8.734;2023-01-01T18:37:42;21.23;;;9.27;;
34573;SDS011;20809;49.594;8.734;2023-01-01T18:40:46;18.48;;;11.15;;
34573;SDS011;20809;49.594;8.734;2023-01-01T18:44:12;12.70;;;5.90;;
34573;SDS011;20809;49.594;8.734;2023-01-01T18:47:15;12.23;;;6.05;;
34573;SDS011;20809;49.594;8.734;2023-01-01T18:50:26;12.35;;;5.85;;
34573;SDS011;20809;49.594;8.734;2023-01-01T18:53:28;17.77;;;6.82;;
34573;SDS011;20809;49.594;8.734;2023-01-01T18:56:31;10.85;;;5.85;;
34573;SDS011;20809;49.594;8.734;2023-01-01T18:59:32;9.63;;;5.80;;
34573;SDS011;20809;49.594;8.734;2023-01-01T19:02:38;8.82;;;5.38;;
34573;SDS011;20809;49.594;8.734;2023-01-01T19:05:44;11.13;;;4.80;;
34573;SDS011;20809;49.594;8.734;2023-01-01T19:08:46;10.35;;;5.35;;
34573;SDS011;20809;49.594;8.734;2023-01-01T19:11:58;9.00;;;3.60;;
34573;SDS011;20809;49.594;8.734;2023-01-01T19:15:00;6.93;;;3.40;;
34573;SDS011;20809;49.594;8.734;2023-01-01T19:18:13;8.57;;;3.65;;
34573;SDS011;20809;49.594;8.734;2023-01-01T19:21:20;13.13;;;5.90;;
34573;SDS011;20809;49.594;8.734;2023-01-01T19:24:23;17.13;;;7.78;;
34573;SDS011;20809;49.594;8.734;2023-01-01T19:27:28;17.95;;;9.10;;
34573;SDS011;20809;49.594;8.734;2023-01-01T19:30:33;13.15;;;6.45;;
34573;SDS011;20809;49.594;8.734;2023-01-01T19:33:34;8.95;;;4.25;;
34573;SDS011;20809;49.594;8.734;2023-01-01T19:36:34;14.85;;;6.68;;
34573;SDS011;20809;49.594;8.734;2023-01-01T19:39:35;14.68;;;5.35;;
34573;SDS011;20809;49.594;8.734;2023-01-01T19:42:37;7.53;;;3.97;;
34573;SDS011;20809;49.594;8.734;2023-01-01T19:45:38;6.57;;;3.70;;
34573;SDS011;20809;49.594;8.734;2023-01-01T19:48:39;6.75;;;4.53;;
34573;SDS011;20809;49.594;8.734;2023-01-01T19:51:39;8.15;;;3.17;;
34573;SDS011;20809;49.594;8.734;2023-01-01T19:54:40;6.60;;;3.13;;
34573;SDS011;20809;49.594;8.734;2023-01-01T19:57:41;5.93;;;2.30;;
34573;SDS011;20809;49.594;8.734;2023-01-01T20:00:41;6.47;;;3.15;;
34573;SDS011;20809;49.594;8.734;2023-01-01T20:03:42;6.22;;;3.33;;
34573;SDS011;20809;49.594;8.734;2023-01-01T20:06:43;4.47;;;2.55;;
34573;SDS011;20809;49.594;8.734;2023-01-01T20:09:43;4.43;;;2.78;;